sensor_id;sensor_type;location;lat;lon;timestamp;temperature;humidity
5899;DHT22;2975;50.956;6.962;2023-08-24T00:01:32;18.90;99.90
5899;DHT22;2975;50.956;6.962;2023-08-24T00:03:57;18.80;99.90
5899;DHT22;2975;50.956;6.962;2023-08-24T00:06:23;18.80;99.90
5899;DHT22;2975;50.956;6.962;2023-08-24T00:08:49;18.80;99.90
5899;DHT22;2975;50.956;6.962;2023-08-24T00:11:42;18.80;99.90
5899;DHT22;2975;50.956;6.962;2023-08-24T00:14:08;18.80;99.90
5899;DHT22;2975;50.956;6.962;2023-08-24T00:16:34;18.80;99.90
5899;DHT22;2975;50.956;6.962;2023-08-24T00:18:59;18.80;99.90
5899;DHT22;2975;50.956;6.962;2023-08-24T00:21:25;18.80;99.90
5899;DHT22;2975;50.956;6.962;2023-08-24T00:23:51;18.80;99.90
5899;DHT22;2975;50.956;6.962;2023-08-24T00:26:17;18.80;99.90
5899;DHT22;2975;50.956;6.962;2023-08-24T00:28:43;18.80;99.90
5899;DHT22;2975;50.956;6.962;2023-08-24T00:31:08;18.80;99.90
5899;DHT22;2975;50.956;6.962;2023-08-24T00:33:34;18.70;99.90
5899;DHT22;2975;50.956;6.962;2023-08-24T00:36:00;18.70;99.90
5899;DHT22;2975;50.956;6.962;2023-08-24T00:38:26;18.70;99.90
5899;DHT22;2975;50.956;6.962;2023-08-24T00:40:52;18.60;99.90
5899;DHT22;2975;50.956;6.962;2023-08-24T00:43:19;18.70;99.90
5899;DHT22;2975;50.956;6.962;2023-08-24T00:45:50;18.60;99.90
5899;DHT22;2975;50.956;6.962;2023-08-24T00:48:16;18.60;99.90
5899;DHT22;2975;50.956;6.962;2023-08-24T00:50:42;18.60;99.90
5899;DHT22;2975;50.956;6.962;2023-08-24T00:53:08;18.60;99.90
5899;DHT22;2975;50.956;6.962;2023-08-24T00:55:33;18.70;99.90
5899;DHT22;2975;50.956;6.962;2023-08-24T00:57:59;18.70;99.90
5899;DHT22;2975;50.956;6.962;2023-08-24T01:00:25;18.80;99.90
5899;DHT22;2975;50.956;6.962;2023-08-24T01:02:50;18.80;99.90
5899;DHT22;2975;50.956;6.962;2023-08-24T01:05:16;18.90;99.90
5899;DHT22;2975;50.956;6.962;2023-08-24T01:07:41;19.00;99.90
5899;DHT22;2975;50.956;6.962;2023-08-24T01:10:09;19.10;99.90
5899;DHT22;2975;50.956;6.962;2023-08-24T01:13:08;19.20;99.90
5899;DHT22;2975;50.956;6.962;2023-08-24T01:16:00;19.40;99.90
5899;DHT22;2975;50.956;6.962;2023-08-24T01:18:30;19.50;99.90
5899;DHT22;2975;50.956;6.962;2023-08-24T01:20:56;19.60;99.90
5899;DHT22;2975;50.956;6.962;2023-08-24T01:26:14;19.70;99.90
5899;DHT22;2975;50.956;6.962;2023-08-24T01:28:43;19.80;99.90
5899;DHT22;2975;50.956;6.962;2023-08-24T01:31:09;19.80;99.90
5899;DHT22;2975;50.956;6.962;2023-08-24T01:33:35;19.80;99.90
5899;DHT22;2975;50.956;6.962;2023-08-24T01:36:01;19.90;99.90
5899;DHT22;2975;50.956;6.962;2023-08-24T01:38:27;19.80;99.90
5899;DHT22;2975;50.956;6.962;2023-08-24T01:43:39;19.90;99.90
5899;DHT22;2975;50.956;6.962;2023-08-24T01:46:07;19.80;99.90
5899;DHT22;2975;50.956;6.962;2023-08-24T01:48:33;19.80;99.90
5899;DHT22;2975;50.956;6.962;2023-08-24T01:50:59;19.80;99.90
5899;DHT22;2975;50.956;6.962;2023-08-24T01:53:28;19.70;99.90
5899;DHT22;2975;50.956;6.962;2023-08-24T01:55:53;19.70;99.90
5899;DHT22;2975;50.956;6.962;2023-08-24T01:58:20;19.60;99.90
5899;DHT22;2975;50.956;6.962;2023-08-24T02:00:45;19.60;99.90
5899;DHT22;2975;50.956;6.962;2023-08-24T02:03:11;19.50;99.90
5899;DHT22;2975;50.956;6.962;2023-08-24T02:05:37;19.50;99.90
5899;DHT22;2975;50.956;6.962;2023-08-24T02:08:03;19.50;99.90
5899;DHT22;2975;50.956;6.962;2023-08-24T02:10:29;19.40;99.90
5899;DHT22;2975;50.956;6.962;2023-08-24T02:12:54;19.40;99.90
5899;DHT22;2975;50.956;6.962;2023-08-24T02:15:20;19.50;99.90
5899;DHT22;2975;50.956;6.962;2023-08-24T02:17:46;19.50;99.90
5899;DHT22;2975;50.956;6.962;2023-08-24T02:20:11;19.40;99.90
5899;DHT22;2975;50.956;6.962;2023-08-24T02:22:38;19.40;99.90
5899;DHT22;2975;50.956;6.962;2023-08-24T02:25:04;19.40;99.90
5899;DHT22;2975;50.956;6.962;2023-08-24T02:27:34;19.40;99.90
5899;DHT22;2975;50.956;6.962;2023-08-24T02:29:59;19.40;99.90
5899;DHT22;2975;50.956;6.962;2023-08-24T02:32:26;19.40;99.90
5899;DHT22;2975;50.956;6.962;2023-08-24T02:34:51;19.40;99.90
5899;DHT22;2975;50.956;6.962;2023-08-24T02:37:17;19.40;99.90
5899;DHT22;2975;50.956;6.962;2023-08-24T02:39:42;19.40;99.90
5899;DHT22;2975;50.956;6.962;2023-08-24T02:42:08;19.40;99.90
5899;DHT22;2975;50.956;6.962;2023-08-24T02:44:34;19.40;99.90
5899;DHT22;2975;50.956;6.962;2023-08-24T02:47:00;19.30;99.90
5899;DHT22;2975;50.956;6.962;2023-08-24T02:49:25;19.30;99.90
5899;DHT22;2975;50.956;6.962;2023-08-24T02:51:51;19.30;99.90
5899;DHT22;2975;50.956;6.962;2023-08-24T02:54:16;19.20;99.90
5899;DHT22;2975;50.956;6.962;2023-08-24T02:56:42;19.20;99.90
5899;DHT22;2975;50.956;6.962;2023-08-24T02:59:08;19.20;99.90
5899;DHT22;2975;50.956;6.962;2023-08-24T03:01:34;19.20;99.90
5899;DHT22;2975;50.956;6.962;2023-08-24T03:04:04;19.20;99.90
5899;DHT22;2975;50.956;6.962;2023-08-24T03:06:30;19.20;99.90
5899;DHT22;2975;50.956;6.962;2023-08-24T03:08:56;19.20;99.90
5899;DHT22;2975;50.956;6.962;2023-08-24T03:11:22;19.30;99.90
5899;DHT22;2975;50.956;6.962;2023-08-24T03:13:47;19.30;99.90
5899;DHT22;2975;50.956;6.962;2023-08-24T03:16:13;19.40;99.90
5899;DHT22;2975;50.956;6.962;2023-08-24T03:18:38;19.40;99.90
5899;DHT22;2975;50.956;6.962;2023-08-24T03:21:04;19.40;99.90
5899;DHT22;2975;50.956;6.962;2023-08-24T03:23:30;19.40;99.90
5899;DHT22;2975;50.956;6.962;2023-08-24T03:25:56;19.30;99.90
5899;DHT22;2975;50.956;6.962;2023-08-24T03:28:22;19.40;99.90
5899;DHT22;2975;50.956;6.962;2023-08-24T03:30:52;19.40;99.90
5899;DHT22;2975;50.956;6.962;2023-08-24T03:33:19;19.30;99.90
5899;DHT22;2975;50.956;6.962;2023-08-24T03:35:45;19.30;99.90
5899;DHT22;2975;50.956;6.962;2023-08-24T03:38:11;19.30;99.90
5899;DHT22;2975;50.956;6.962;2023-08-24T03:40:36;19.30;99.90
5899;DHT22;2975;50.956;6.962;2023-08-24T03:43:02;19.20;99.90
5899;DHT22;2975;50.956;6.962;2023-08-24T03:45:28;19.20;99.90
5899;DHT22;2975;50.956;6.962;2023-08-24T03:47:54;19.20;99.90
5899;DHT22;2975;50.956;6.962;2023-08-24T03:50:20;19.20;99.90
5899;DHT22;2975;50.956;6.962;2023-08-24T03:52:45;19.20;99.90
5899;DHT22;2975;50.956;6.962;2023-08-24T03:55:11;19.20;99.90
5899;DHT22;2975;50.956;6.962;2023-08-24T03:57:36;19.20;99.90
5899;DHT22;2975;50.956;6.962;2023-08-24T04:00:04;19.20;99.90
5899;DHT22;2975;50.956;6.962;2023-08-24T04:02:32;19.20;99.90
5899;DHT22;2975;50.956;6.962;2023-08-24T04:04:58;19.20;99.90
5899;DHT22;2975;50.956;6.962;2023-08-24T04:07:23;19.20;99.90
5899;DHT22;2975;50.956;6.962;2023-08-24T04:09:49;19.30;99.90
5899;DHT22;2975;50.956;6.962;2023-08-24T04:12:14;19.30;99.90
5899;DHT22;2975;50.956;6.962;2023-08-24T04:14:40;19.40;99.90
5899;DHT22;2975;50.956;6.962;2023-08-24T04:17:06;19.40;99.90
5899;DHT22;2975;50.956;6.962;2023-08-24T04:19:31;19.40;99.90
5899;DHT22;2975;50.956;6.962;2023-08-24T04:21:57;19.50;99.90
5899;DHT22;2975;50.956;6.962;2023-08-24T04:24:23;19.60;99.90
5899;DHT22;2975;50.956;6.962;2023-08-24T04:26:50;19.60;99.90
5899;DHT22;2975;50.956;6.962;2023-08-24T04:29:17;19.70;99.90
5899;DHT22;2975;50.956;6.962;2023-08-24T04:31:42;19.70;99.90
5899;DHT22;2975;50.956;6.962;2023-08-24T04:34:08;19.90;99.90
5899;DHT22;2975;50.956;6.962;2023-08-24T04:36:34;20.00;99.90
5899;DHT22;2975;50.956;6.962;2023-08-24T04:39:00;20.10;99.90
5899;DHT22;2975;50.956;6.962;2023-08-24T04:41:27;20.10;99.90
5899;DHT22;2975;50.956;6.962;2023-08-24T04:43:52;20.20;99.90
5899;DHT22;2975;50.956;6.962;2023-08-24T04:46:18;20.20;99.90
5899;DHT22;2975;50.956;6.962;2023-08-24T04:48:44;20.20;99.90
5899;DHT22;2975;50.956;6.962;2023-08-24T04:51:09;20.20;99.90
5899;DHT22;2975;50.956;6.962;2023-08-24T04:53:35;20.40;99.90
5899;DHT22;2975;50.956;6.962;2023-08-24T04:56:01;20.40;99.90
5899;DHT22;2975;50.956;6.962;2023-08-24T04:58:26;20.50;99.90
5899;DHT22;2975;50.956;6.962;2023-08-24T05:00:52;20.60;99.90
5899;DHT22;2975;50.956;6.962;2023-08-24T05:03:17;20.60;99.90
5899;DHT22;2975;50.956;6.962;2023-08-24T05:05:45;20.60;99.90
5899;DHT22;2975;50.956;6.962;2023-08-24T05:08:12;20.50;99.90
5899;DHT22;2975;50.956;6.962;2023-08-24T05:10:38;20.50;99.90
5899;DHT22;2975;50.956;6.962;2023-08-24T05:13:04;20.50;99.90
5899;DHT22;2975;50.956;6.962;2023-08-24T05:15:30;20.40;99.90
5899;DHT22;2975;50.956;6.962;2023-08-24T05:17:56;20.40;99.90
5899;DHT22;2975;50.956;6.962;2023-08-24T05:20:27;20.40;99.90
5899;DHT22;2975;50.956;6.962;2023-08-24T05:22:53;20.50;99.90
5899;DHT22;2975;50.956;6.962;2023-08-24T05:25:22;20.60;99.90
5899;DHT22;2975;50.956;6.962;2023-08-24T05:27:48;20.70;99.90
5899;DHT22;2975;50.956;6.962;2023-08-24T05:30:13;20.60;99.90
5899;DHT22;2975;50.956;6.962;2023-08-24T05:32:39;20.40;99.90
5899;DHT22;2975;50.956;6.962;2023-08-24T05:35:08;20.40;99.90
5899;DHT22;2975;50.956;6.962;2023-08-24T05:37:35;20.30;99.90
5899;DHT22;2975;50.956;6.962;2023-08-24T05:40:01;20.20;99.90
5899;DHT22;2975;50.956;6.962;2023-08-24T05:42:27;20.10;99.90
5899;DHT22;2975;50.956;6.962;2023-08-24T05:44:53;20.10;99.90
5899;DHT22;2975;50.956;6.962;2023-08-24T05:47:19;20.00;99.90
5899;DHT22;2975;50.956;6.962;2023-08-24T05:49:44;20.00;99.90
5899;DHT22;2975;50.956;6.962;2023-08-24T05:52:10;19.90;99.90
5899;DHT22;2975;50.956;6.962;2023-08-24T05:54:37;19.90;99.90
5899;DHT22;2975;50.956;6.962;2023-08-24T05:57:03;20.00;99.90
5899;DHT22;2975;50.956;6.962;2023-08-24T05:59:29;20.00;99.90
5899;DHT22;2975;50.956;6.962;2023-08-24T06:01:55;20.10;99.90
5899;DHT22;2975;50.956;6.962;2023-08-24T06:04:21;20.10;99.90
5899;DHT22;2975;50.956;6.962;2023-08-24T06:06:46;20.10;99.90
5899;DHT22;2975;50.956;6.962;2023-08-24T06:09:12;20.20;99.90
5899;DHT22;2975;50.956;6.962;2023-08-24T06:11:38;20.20;99.90
5899;DHT22;2975;50.956;6.962;2023-08-24T06:14:03;20.40;99.90
5899;DHT22;2975;50.956;6.962;2023-08-24T06:16:29;20.40;99.90
5899;DHT22;2975;50.956;6.962;2023-08-24T06:18:55;20.50;99.90
5899;DHT22;2975;50.956;6.962;2023-08-24T06:21:20;20.60;99.90
5899;DHT22;2975;50.956;6.962;2023-08-24T06:23:46;20.70;99.90
5899;DHT22;2975;50.956;6.962;2023-08-24T06:26:13;20.90;99.90
5899;DHT22;2975;50.956;6.962;2023-08-24T06:28:39;21.00;99.90
5899;DHT22;2975;50.956;6.962;2023-08-24T06:31:04;21.20;99.90
5899;DHT22;2975;50.956;6.962;2023-08-24T06:33:39;21.30;99.90
5899;DHT22;2975;50.956;6.962;2023-08-24T06:36:05;21.30;99.90
5899;DHT22;2975;50.956;6.962;2023-08-24T06:38:31;21.50;99.90
5899;DHT22;2975;50.956;6.962;2023-08-24T06:40:59;21.80;99.90
5899;DHT22;2975;50.956;6.962;2023-08-24T06:43:26;22.10;99.90
5899;DHT22;2975;50.956;6.962;2023-08-24T06:45:53;22.30;99.90
5899;DHT22;2975;50.956;6.962;2023-08-24T06:48:19;22.50;99.90
5899;DHT22;2975;50.956;6.962;2023-08-24T06:50:45;22.60;99.90
5899;DHT22;2975;50.956;6.962;2023-08-24T06:53:10;22.60;99.90
5899;DHT22;2975;50.956;6.962;2023-08-24T06:55:36;22.70;99.90
5899;DHT22;2975;50.956;6.962;2023-08-24T06:58:02;22.80;99.90
5899;DHT22;2975;50.956;6.962;2023-08-24T07:00:30;22.90;99.90
5899;DHT22;2975;50.956;6.962;2023-08-24T07:02:56;22.90;99.90
5899;DHT22;2975;50.956;6.962;2023-08-24T07:05:23;23.00;99.90
5899;DHT22;2975;50.956;6.962;2023-08-24T07:07:52;23.00;99.90
5899;DHT22;2975;50.956;6.962;2023-08-24T07:10:19;23.10;99.90
5899;DHT22;2975;50.956;6.962;2023-08-24T07:12:45;23.20;99.90
5899;DHT22;2975;50.956;6.962;2023-08-24T07:15:12;23.30;99.90
5899;DHT22;2975;50.956;6.962;2023-08-24T07:17:37;23.20;99.90
5899;DHT22;2975;50.956;6.962;2023-08-24T07:20:04;23.30;99.90
5899;DHT22;2975;50.956;6.962;2023-08-24T07:22:39;23.20;99.90
5899;DHT22;2975;50.956;6.962;2023-08-24T07:25:05;23.30;99.90
5899;DHT22;2975;50.956;6.962;2023-08-24T07:27:34;23.30;99.90
5899;DHT22;2975;50.956;6.962;2023-08-24T07:30:01;23.30;99.90
5899;DHT22;2975;50.956;6.962;2023-08-24T07:32:28;23.40;99.90
5899;DHT22;2975;50.956;6.962;2023-08-24T07:34:55;23.40;99.90
5899;DHT22;2975;50.956;6.962;2023-08-24T07:37:22;23.50;99.90
5899;DHT22;2975;50.956;6.962;2023-08-24T07:39:48;23.50;99.90
5899;DHT22;2975;50.956;6.962;2023-08-24T07:42:13;23.50;99.90
5899;DHT22;2975;50.956;6.962;2023-08-24T07:44:39;23.60;99.90
5899;DHT22;2975;50.956;6.962;2023-08-24T07:47:04;23.70;99.90
5899;DHT22;2975;50.956;6.962;2023-08-24T07:49:30;23.90;99.90
5899;DHT22;2975;50.956;6.962;2023-08-24T07:51:56;24.00;99.90
5899;DHT22;2975;50.956;6.962;2023-08-24T07:54:24;24.10;99.90
5899;DHT22;2975;50.956;6.962;2023-08-24T07:56:50;24.20;99.90
5899;DHT22;2975;50.956;6.962;2023-08-24T07:59:15;24.20;99.90
5899;DHT22;2975;50.956;6.962;2023-08-24T08:01:41;24.40;99.90
5899;DHT22;2975;50.956;6.962;2023-08-24T08:04:06;24.50;99.90
5899;DHT22;2975;50.956;6.962;2023-08-24T08:06:32;24.60;99.90
5899;DHT22;2975;50.956;6.962;2023-08-24T08:08:58;24.70;99.90
5899;DHT22;2975;50.956;6.962;2023-08-24T08:11:23;24.80;99.90
5899;DHT22;2975;50.956;6.962;2023-08-24T08:13:49;24.90;99.90
5899;DHT22;2975;50.956;6.962;2023-08-24T08:16:15;25.10;99.90
5899;DHT22;2975;50.956;6.962;2023-08-24T08:18:40;25.20;99.90
5899;DHT22;2975;50.956;6.962;2023-08-24T08:21:16;25.30;99.90
5899;DHT22;2975;50.956;6.962;2023-08-24T08:23:45;25.40;99.90
5899;DHT22;2975;50.956;6.962;2023-08-24T08:26:12;25.40;99.90
5899;DHT22;2975;50.956;6.962;2023-08-24T08:28:39;25.60;99.20
5899;DHT22;2975;50.956;6.962;2023-08-24T08:31:05;25.60;99.20
5899;DHT22;2975;50.956;6.962;2023-08-24T08:33:31;25.70;98.50
5899;DHT22;2975;50.956;6.962;2023-08-24T08:35:57;25.60;99.10
5899;DHT22;2975;50.956;6.962;2023-08-24T08:38:22;25.50;99.30
5899;DHT22;2975;50.956;6.962;2023-08-24T08:40:52;25.60;98.80
5899;DHT22;2975;50.956;6.962;2023-08-24T08:43:21;25.60;99.00
5899;DHT22;2975;50.956;6.962;2023-08-24T08:45:49;25.70;98.80
5899;DHT22;2975;50.956;6.962;2023-08-24T08:48:15;25.80;98.30
5899;DHT22;2975;50.956;6.962;2023-08-24T08:50:41;25.90;98.60
5899;DHT22;2975;50.956;6.962;2023-08-24T08:53:06;25.90;98.40
5899;DHT22;2975;50.956;6.962;2023-08-24T08:55:32;26.00;98.00
5899;DHT22;2975;50.956;6.962;2023-08-24T08:57:58;26.30;97.70
5899;DHT22;2975;50.956;6.962;2023-08-24T09:00:26;26.50;97.40
5899;DHT22;2975;50.956;6.962;2023-08-24T09:02:53;26.80;96.20
5899;DHT22;2975;50.956;6.962;2023-08-24T09:05:19;26.80;96.30
5899;DHT22;2975;50.956;6.962;2023-08-24T09:07:46;27.10;96.00
5899;DHT22;2975;50.956;6.962;2023-08-24T09:10:12;27.20;95.40
5899;DHT22;2975;50.956;6.962;2023-08-24T09:12:38;27.40;95.30
5899;DHT22;2975;50.956;6.962;2023-08-24T09:15:05;27.60;94.70
5899;DHT22;2975;50.956;6.962;2023-08-24T09:17:34;27.70;94.70
5899;DHT22;2975;50.956;6.962;2023-08-24T09:20:06;27.90;93.90
5899;DHT22;2975;50.956;6.962;2023-08-24T09:22:36;28.10;93.90
5899;DHT22;2975;50.956;6.962;2023-08-24T09:25:03;28.20;93.40
5899;DHT22;2975;50.956;6.962;2023-08-24T09:27:30;28.40;93.20
5899;DHT22;2975;50.956;6.962;2023-08-24T09:29:55;28.60;92.80
5899;DHT22;2975;50.956;6.962;2023-08-24T09:32:27;28.70;92.50
5899;DHT22;2975;50.956;6.962;2023-08-24T09:34:53;28.90;91.90
5899;DHT22;2975;50.956;6.962;2023-08-24T09:37:19;28.90;91.70
5899;DHT22;2975;50.956;6.962;2023-08-24T09:39:45;28.90;91.80
5899;DHT22;2975;50.956;6.962;2023-08-24T09:42:12;28.80;92.10
5899;DHT22;2975;50.956;6.962;2023-08-24T09:44:42;28.80;91.80
5899;DHT22;2975;50.956;6.962;2023-08-24T09:47:11;28.90;91.60
5899;DHT22;2975;50.956;6.962;2023-08-24T09:49:37;29.10;90.90
5899;DHT22;2975;50.956;6.962;2023-08-24T09:52:06;29.00;91.20
5899;DHT22;2975;50.956;6.962;2023-08-24T09:54:36;29.00;91.20
5899;DHT22;2975;50.956;6.962;2023-08-24T09:57:02;28.80;91.40
5899;DHT22;2975;50.956;6.962;2023-08-24T09:59:30;28.80;91.40
5899;DHT22;2975;50.956;6.962;2023-08-24T10:01:56;28.80;91.30
5899;DHT22;2975;50.956;6.962;2023-08-24T10:04:29;29.20;91.00
5899;DHT22;2975;50.956;6.962;2023-08-24T10:07:08;29.30;91.00
5899;DHT22;2975;50.956;6.962;2023-08-24T10:09:45;29.40;90.70
5899;DHT22;2975;50.956;6.962;2023-08-24T10:12:13;29.50;90.70
5899;DHT22;2975;50.956;6.962;2023-08-24T10:14:53;29.70;90.60
5899;DHT22;2975;50.956;6.962;2023-08-24T10:17:22;29.80;90.20
5899;DHT22;2975;50.956;6.962;2023-08-24T10:19:51;29.60;90.30
5899;DHT22;2975;50.956;6.962;2023-08-24T10:22:21;29.60;90.30
5899;DHT22;2975;50.956;6.962;2023-08-24T10:24:47;29.50;90.20
5899;DHT22;2975;50.956;6.962;2023-08-24T10:27:14;29.50;90.40
5899;DHT22;2975;50.956;6.962;2023-08-24T10:29:40;29.50;90.30
5899;DHT22;2975;50.956;6.962;2023-08-24T10:32:06;29.70;90.40
5899;DHT22;2975;50.956;6.962;2023-08-24T10:34:33;29.70;90.00
5899;DHT22;2975;50.956;6.962;2023-08-24T10:37:08;29.70;90.30
5899;DHT22;2975;50.956;6.962;2023-08-24T10:39:35;29.70;90.40
5899;DHT22;2975;50.956;6.962;2023-08-24T10:42:03;29.60;90.60
5899;DHT22;2975;50.956;6.962;2023-08-24T10:44:36;29.40;90.70
5899;DHT22;2975;50.956;6.962;2023-08-24T10:47:06;29.30;90.50
5899;DHT22;2975;50.956;6.962;2023-08-24T10:49:32;29.20;90.40
5899;DHT22;2975;50.956;6.962;2023-08-24T10:52:20;29.00;90.60
5899;DHT22;2975;50.956;6.962;2023-08-24T10:54:47;29.20;90.30
5899;DHT22;2975;50.956;6.962;2023-08-24T11:00:04;30.00;87.60
5899;DHT22;2975;50.956;6.962;2023-08-24T11:02:43;30.30;87.60
5899;DHT22;2975;50.956;6.962;2023-08-24T11:05:30;30.50;89.00
5899;DHT22;2975;50.956;6.962;2023-08-24T11:08:02;30.70;87.70
5899;DHT22;2975;50.956;6.962;2023-08-24T11:10:46;30.80;87.30
5899;DHT22;2975;50.956;6.962;2023-08-24T11:23:23;30.50;79.70
5899;DHT22;2975;50.956;6.962;2023-08-24T11:25:51;30.70;81.70
5899;DHT22;2975;50.956;6.962;2023-08-24T11:28:21;30.40;84.00
5899;DHT22;2975;50.956;6.962;2023-08-24T11:30:47;30.00;84.00
5899;DHT22;2975;50.956;6.962;2023-08-24T11:33:13;29.70;86.50
5899;DHT22;2975;50.956;6.962;2023-08-24T11:35:43;29.60;85.80
5899;DHT22;2975;50.956;6.962;2023-08-24T11:38:10;29.50;86.00
5899;DHT22;2975;50.956;6.962;2023-08-24T11:40:36;29.50;85.20
5899;DHT22;2975;50.956;6.962;2023-08-24T11:43:03;29.50;86.20
5899;DHT22;2975;50.956;6.962;2023-08-24T11:45:32;29.40;86.00
5899;DHT22;2975;50.956;6.962;2023-08-24T11:48:02;29.20;86.40
5899;DHT22;2975;50.956;6.962;2023-08-24T11:50:29;29.20;86.70
5899;DHT22;2975;50.956;6.962;2023-08-24T11:52:55;29.10;86.60
5899;DHT22;2975;50.956;6.962;2023-08-24T11:55:24;29.00;87.20
5899;DHT22;2975;50.956;6.962;2023-08-24T11:57:51;28.90;87.20
5899;DHT22;2975;50.956;6.962;2023-08-24T12:00:20;28.90;87.50
5899;DHT22;2975;50.956;6.962;2023-08-24T12:02:47;29.00;87.40
5899;DHT22;2975;50.956;6.962;2023-08-24T12:05:23;29.10;87.50
5899;DHT22;2975;50.956;6.962;2023-08-24T12:07:50;29.20;86.80
5899;DHT22;2975;50.956;6.962;2023-08-24T12:10:16;29.20;86.80
5899;DHT22;2975;50.956;6.962;2023-08-24T12:12:42;29.20;87.20
5899;DHT22;2975;50.956;6.962;2023-08-24T12:15:18;29.20;87.40
5899;DHT22;2975;50.956;6.962;2023-08-24T12:17:46;29.20;87.80
5899;DHT22;2975;50.956;6.962;2023-08-24T12:20:22;29.10;87.80
5899;DHT22;2975;50.956;6.962;2023-08-24T12:22:51;29.10;88.10
5899;DHT22;2975;50.956;6.962;2023-08-24T12:25:17;29.00;88.30
5899;DHT22;2975;50.956;6.962;2023-08-24T12:27:43;29.00;89.20
5899;DHT22;2975;50.956;6.962;2023-08-24T12:30:10;29.00;89.30
5899;DHT22;2975;50.956;6.962;2023-08-24T12:32:49;28.90;89.90
5899;DHT22;2975;50.956;6.962;2023-08-24T12:35:16;28.80;90.50
5899;DHT22;2975;50.956;6.962;2023-08-24T12:37:42;28.70;90.70
5899;DHT22;2975;50.956;6.962;2023-08-24T12:40:08;28.50;90.80
5899;DHT22;2975;50.956;6.962;2023-08-24T12:42:34;28.30;91.00
5899;DHT22;2975;50.956;6.962;2023-08-24T12:45:00;28.00;91.10
5899;DHT22;2975;50.956;6.962;2023-08-24T12:47:25;27.80;92.00
5899;DHT22;2975;50.956;6.962;2023-08-24T12:49:51;27.70;92.10
5899;DHT22;2975;50.956;6.962;2023-08-24T12:52:18;27.40;92.90
5899;DHT22;2975;50.956;6.962;2023-08-24T12:54:43;27.10;95.30
5899;DHT22;2975;50.956;6.962;2023-08-24T12:57:09;26.80;96.60
5899;DHT22;2975;50.956;6.962;2023-08-24T12:59:35;26.60;99.40
5899;DHT22;2975;50.956;6.962;2023-08-24T13:02:00;26.60;99.70
5899;DHT22;2975;50.956;6.962;2023-08-24T13:04:26;26.50;99.90
5899;DHT22;2975;50.956;6.962;2023-08-24T13:06:55;26.50;99.90
5899;DHT22;2975;50.956;6.962;2023-08-24T13:09:20;26.40;99.90
5899;DHT22;2975;50.956;6.962;2023-08-24T13:11:48;26.40;99.90
5899;DHT22;2975;50.956;6.962;2023-08-24T13:14:14;26.40;99.90
5899;DHT22;2975;50.956;6.962;2023-08-24T13:16:39;26.30;99.90
5899;DHT22;2975;50.956;6.962;2023-08-24T13:19:05;26.30;99.90
5899;DHT22;2975;50.956;6.962;2023-08-24T13:21:30;26.20;99.90
5899;DHT22;2975;50.956;6.962;2023-08-24T13:23:56;26.20;99.90
5899;DHT22;2975;50.956;6.962;2023-08-24T13:26:21;26.30;99.90
5899;DHT22;2975;50.956;6.962;2023-08-24T13:28:48;26.40;99.90
5899;DHT22;2975;50.956;6.962;2023-08-24T13:31:14;26.40;99.90
5899;DHT22;2975;50.956;6.962;2023-08-24T13:33:40;26.50;99.90
5899;DHT22;2975;50.956;6.962;2023-08-24T13:36:05;26.50;99.90
5899;DHT22;2975;50.956;6.962;2023-08-24T13:38:31;26.50;99.90
5899;DHT22;2975;50.956;6.962;2023-08-24T13:40:56;26.60;99.90
5899;DHT22;2975;50.956;6.962;2023-08-24T13:43:22;26.60;99.90
5899;DHT22;2975;50.956;6.962;2023-08-24T13:45:48;26.60;99.90
5899;DHT22;2975;50.956;6.962;2023-08-24T13:48:14;26.60;99.90
5899;DHT22;2975;50.956;6.962;2023-08-24T13:50:41;26.70;99.90
5899;DHT22;2975;50.956;6.962;2023-08-24T13:53:07;26.70;99.90
5899;DHT22;2975;50.956;6.962;2023-08-24T13:55:32;26.70;99.90
5899;DHT22;2975;50.956;6.962;2023-08-24T13:57:58;26.60;99.90
5899;DHT22;2975;50.956;6.962;2023-08-24T14:00:24;26.60;99.90
5899;DHT22;2975;50.956;6.962;2023-08-24T14:02:50;26.60;99.90
5899;DHT22;2975;50.956;6.962;2023-08-24T14:05:16;26.60;99.90
5899;DHT22;2975;50.956;6.962;2023-08-24T14:07:42;26.60;99.90
5899;DHT22;2975;50.956;6.962;2023-08-24T14:10:08;26.50;99.90
5899;DHT22;2975;50.956;6.962;2023-08-24T14:12:34;26.40;99.90
5899;DHT22;2975;50.956;6.962;2023-08-24T14:15:00;26.40;99.90
5899;DHT22;2975;50.956;6.962;2023-08-24T14:17:25;26.20;99.90
5899;DHT22;2975;50.956;6.962;2023-08-24T14:19:51;26.20;99.90
5899;DHT22;2975;50.956;6.962;2023-08-24T14:22:17;26.10;99.90
5899;DHT22;2975;50.956;6.962;2023-08-24T14:24:42;25.90;99.90
5899;DHT22;2975;50.956;6.962;2023-08-24T14:27:08;25.70;99.90
5899;DHT22;2975;50.956;6.962;2023-08-24T14:29:33;25.60;99.90
5899;DHT22;2975;50.956;6.962;2023-08-24T14:31:59;25.60;99.90
5899;DHT22;2975;50.956;6.962;2023-08-24T14:34:24;25.60;99.90
5899;DHT22;2975;50.956;6.962;2023-08-24T14:36:50;25.60;99.90
5899;DHT22;2975;50.956;6.962;2023-08-24T14:39:15;25.60;99.90
5899;DHT22;2975;50.956;6.962;2023-08-24T14:41:41;25.60;99.90
5899;DHT22;2975;50.956;6.962;2023-08-24T14:44:07;25.50;99.90
5899;DHT22;2975;50.956;6.962;2023-08-24T14:46:33;25.50;99.90
5899;DHT22;2975;50.956;6.962;2023-08-24T14:48:59;25.50;99.90
5899;DHT22;2975;50.956;6.962;2023-08-24T14:51:25;25.30;99.90
5899;DHT22;2975;50.956;6.962;2023-08-24T14:53:50;25.20;99.90
5899;DHT22;2975;50.956;6.962;2023-08-24T14:56:16;25.10;99.90
5899;DHT22;2975;50.956;6.962;2023-08-24T14:58:41;24.90;99.90
5899;DHT22;2975;50.956;6.962;2023-08-24T15:01:07;24.80;99.90
5899;DHT22;2975;50.956;6.962;2023-08-24T15:03:33;24.70;99.90
5899;DHT22;2975;50.956;6.962;2023-08-24T15:06:03;24.60;99.90
5899;DHT22;2975;50.956;6.962;2023-08-24T15:08:34;24.50;99.90
5899;DHT22;2975;50.956;6.962;2023-08-24T15:11:01;24.40;99.90
5899;DHT22;2975;50.956;6.962;2023-08-24T15:13:28;24.30;99.90
5899;DHT22;2975;50.956;6.962;2023-08-24T15:15:56;24.20;99.90
5899;DHT22;2975;50.956;6.962;2023-08-24T15:18:23;24.00;99.90
5899;DHT22;2975;50.956;6.962;2023-08-24T15:20:49;23.90;99.90
5899;DHT22;2975;50.956;6.962;2023-08-24T15:23:25;23.80;99.90
5899;DHT22;2975;50.956;6.962;2023-08-24T15:25:55;23.70;99.90
5899;DHT22;2975;50.956;6.962;2023-08-24T15:28:21;23.70;99.90
5899;DHT22;2975;50.956;6.962;2023-08-24T15:30:47;23.60;99.90
5899;DHT22;2975;50.956;6.962;2023-08-24T15:33:13;23.60;99.90
5899;DHT22;2975;50.956;6.962;2023-08-24T15:35:42;23.50;99.90
5899;DHT22;2975;50.956;6.962;2023-08-24T15:38:08;23.50;99.90
5899;DHT22;2975;50.956;6.962;2023-08-24T15:40:34;23.50;99.90
5899;DHT22;2975;50.956;6.962;2023-08-24T15:43:01;23.50;99.90
5899;DHT22;2975;50.956;6.962;2023-08-24T15:45:30;23.50;99.90
5899;DHT22;2975;50.956;6.962;2023-08-24T15:47:57;23.50;99.90
5899;DHT22;2975;50.956;6.962;2023-08-24T15:50:23;23.50;99.90
5899;DHT22;2975;50.956;6.962;2023-08-24T15:52:49;23.40;99.90
5899;DHT22;2975;50.956;6.962;2023-08-24T15:55:14;23.30;99.90
5899;DHT22;2975;50.956;6.962;2023-08-24T15:57:41;23.30;99.90
5899;DHT22;2975;50.956;6.962;2023-08-24T16:00:07;23.30;99.90
5899;DHT22;2975;50.956;6.962;2023-08-24T16:02:39;23.20;99.90
5899;DHT22;2975;50.956;6.962;2023-08-24T16:05:05;23.10;99.90
5899;DHT22;2975;50.956;6.962;2023-08-24T16:07:31;23.10;99.90
5899;DHT22;2975;50.956;6.962;2023-08-24T16:09:57;23.10;99.90
5899;DHT22;2975;50.956;6.962;2023-08-24T16:12:23;23.20;99.90
5899;DHT22;2975;50.956;6.962;2023-08-24T16:14:48;23.20;99.90
5899;DHT22;2975;50.956;6.962;2023-08-24T16:17:14;23.20;99.90
5899;DHT22;2975;50.956;6.962;2023-08-24T16:19:39;23.30;99.90